createdAt,value
2017-11-18T00:01:15.272Z,102190.90
2017-11-18T00:03:16.582Z,102184.45
2017-11-18T00:05:17.863Z,102186.53
2017-11-18T00:07:19.832Z,102173.71
2017-11-18T00:09:21.396Z,102170.84
2017-11-18T00:11:22.926Z,102172.50
2017-11-18T00:13:24.968Z,102169.55
2017-11-18T00:15:26.438Z,102168.63
2017-11-18T00:17:28.119Z,102165.66
2017-11-18T00:19:30.370Z,102159.63
2017-11-18T00:21:31.882Z,102161.38
2017-11-18T00:23:33.058Z,102161.00
2017-11-18T00:25:35.710Z,102165.72
2017-11-18T00:27:39.192Z,102159.82
2017-11-18T00:29:50.777Z,102156.77
2017-11-18T00:31:55.258Z,102158.59
2017-11-18T00:38:46.520Z,102157.06
2017-11-18T00:43:04.553Z,102149.88
2017-11-18T00:45:07.824Z,102156.41
2017-11-18T00:47:14.712Z,102163.41
2017-11-18T00:49:17.390Z,102152.66
2017-11-18T00:51:20.762Z,102156.17
2017-11-18T00:53:23.622Z,102156.59
2017-11-18T00:57:34.435Z,102148.09
2017-11-18T00:59:37.490Z,102161.03
2017-11-18T01:03:47.446Z,102149.91
2017-11-18T01:05:53.522Z,102153.84
2017-11-18T01:07:55.993Z,102154.77
2017-11-18T01:09:57.250Z,102156.92
2017-11-18T01:11:58.598Z,102152.35
2017-11-18T01:14:01.087Z,102145.89
2017-11-18T01:16:02.639Z,102143.70
2017-11-18T01:18:03.898Z,102144.17
2017-11-18T01:20:05.432Z,102133.42
2017-11-18T01:22:06.712Z,102133.55
2017-11-18T01:24:08.003Z,102132.31
2017-11-18T01:26:09.351Z,102121.67
2017-11-18T01:28:10.699Z,102122.85
2017-11-18T01:30:12.562Z,102118.17
2017-11-18T01:32:14.219Z,102112.15
2017-11-18T01:34:15.628Z,102116.19
2017-11-18T01:36:17.831Z,102125.26
2017-11-18T01:38:19.274Z,102126.23
2017-11-18T01:40:21.532Z,102113.27
2017-11-18T01:42:23.103Z,102111.22
2017-11-18T01:44:25.558Z,102112.16
2017-11-18T01:46:26.863Z,102126.36
2017-11-18T01:48:28.252Z,102119.95
2017-11-18T01:50:29.586Z,102119.16
2017-11-18T01:52:31.040Z,102109.81
2017-11-18T01:54:32.590Z,102105.52
2017-11-18T01:56:34.149Z,102101.70
2017-11-18T01:58:35.698Z,102099.61
2017-11-18T02:00:37.243Z,102105.64
2017-11-18T02:02:40.845Z,102111.30
2017-11-18T02:04:43.219Z,102103.05
2017-11-18T02:06:44.776Z,102100.10
2017-11-18T02:08:46.023Z,102085.53
2017-11-18T02:10:47.304Z,102096.30
2017-11-18T02:12:48.928Z,102082.21
2017-11-18T02:14:50.461Z,102073.67
2017-11-18T02:16:51.876Z,102066.34
2017-11-18T02:18:53.355Z,102068.91
2017-11-18T02:20:55.104Z,102058.66
2017-11-18T02:22:56.373Z,102059.14
2017-11-18T02:24:57.942Z,102051.52
2017-11-18T02:26:59.557Z,102051.96
2017-11-18T02:29:00.969Z,102060.15
2017-11-18T02:31:02.615Z,102049.02
2017-11-18T02:33:04.825Z,102049.55
2017-11-18T02:35:06.128Z,102048.27
2017-11-18T02:37:07.544Z,102045.73
2017-11-18T02:39:09.302Z,102048.76
2017-11-18T02:41:10.655Z,102048.77
2017-11-18T02:43:12.073Z,102041.13
2017-11-18T02:45:13.508Z,102043.30
2017-11-18T02:47:14.821Z,102040.29
2017-11-18T02:49:16.133Z,102037.81
2017-11-18T02:51:17.635Z,102027.02
2017-11-18T02:53:18.930Z,102026.75
2017-11-18T02:55:20.179Z,102031.02
2017-11-18T02:57:21.777Z,102032.41
2017-11-18T02:59:23.113Z,102022.52
2017-11-18T03:01:24.888Z,102031.25
2017-11-18T03:03:26.561Z,102025.22
2017-11-18T03:05:30.240Z,102023.94
2017-11-18T03:07:32.013Z,102027.44
2017-11-18T03:09:33.548Z,102022.83
2017-11-18T03:11:34.948Z,102023.24
2017-11-18T03:13:36.551Z,102022.83
2017-11-18T03:15:38.119Z,102021.16
2017-11-18T03:17:39.649Z,102012.63
2017-11-18T03:19:41.320Z,102017.78
2017-11-18T03:21:42.839Z,102011.88
2017-11-18T03:23:44.281Z,102021.34
2017-11-18T03:25:46.056Z,102014.09
2017-11-18T03:27:47.925Z,102005.98
2017-11-18T03:29:49.774Z,102000.52
2017-11-18T03:31:51.125Z,102003.97
2017-11-18T03:33:52.765Z,102012.17
2017-11-18T03:35:54.045Z,102008.33
2017-11-18T03:37:55.362Z,102014.37
2017-11-18T03:39:56.722Z,102013.19
2017-11-18T03:41:58.355Z,102017.19
2017-11-18T03:43:59.623Z,102010.75
2017-11-18T03:46:01.271Z,102012.50
2017-11-18T03:48:02.895Z,102004.45
2017-11-18T03:50:04.890Z,102004.47
2017-11-18T03:52:06.845Z,102003.19
2017-11-18T03:54:08.453Z,101996.34
2017-11-18T03:56:10.040Z,101995.97
2017-11-18T03:58:11.685Z,101982.70
2017-11-18T04:00:13.418Z,101986.58
2017-11-18T04:02:14.791Z,101986.95
2017-11-18T04:04:16.236Z,101987.94
2017-11-18T04:06:17.536Z,101989.33
2017-11-18T04:08:19.651Z,101989.33
2017-11-18T04:10:21.507Z,101987.24
2017-11-18T04:12:23.427Z,101985.59
2017-11-18T04:14:25.226Z,101983.06
2017-11-18T04:16:26.980Z,101992.09
2017-11-18T04:18:28.500Z,101975.34
2017-11-18T04:20:30.078Z,101985.34
2017-11-18T04:22:31.836Z,101969.37
2017-11-18T04:24:33.358Z,101968.99
2017-11-18T04:26:35.139Z,101968.14
2017-11-18T04:28:36.587Z,101972.08
2017-11-18T04:30:38.125Z,101961.87
2017-11-18T04:32:39.378Z,101957.21
2017-11-18T04:34:40.929Z,101955.86
2017-11-18T04:36:42.473Z,101956.77
2017-11-18T04:38:44.010Z,101952.86
2017-11-18T04:40:46.180Z,101946.52
2017-11-18T04:42:47.650Z,101957.27
2017-11-18T04:44:48.996Z,101948.23
2017-11-18T04:46:50.661Z,101944.00
2017-11-18T04:48:52.364Z,101941.00
2017-11-18T04:50:53.835Z,101944.00
2017-11-18T04:52:55.406Z,101937.29
2017-11-18T04:54:56.693Z,101939.40
2017-11-18T04:56:58.912Z,101936.02
2017-11-18T04:59:00.510Z,101925.27
2017-11-18T05:01:01.839Z,101930.00
2017-11-18T05:03:03.570Z,101924.52
2017-11-18T05:05:05.203Z,101928.02
2017-11-18T05:07:09.631Z,101923.25
2017-11-18T05:09:11.376Z,101919.84
2017-11-18T05:11:12.938Z,101913.05
2017-11-18T05:13:14.383Z,101921.64
2017-11-18T05:15:16.040Z,101925.69
2017-11-18T05:17:17.580Z,101924.33
2017-11-18T05:19:18.862Z,101921.34
2017-11-18T05:21:20.394Z,101917.77
2017-11-18T05:23:21.939Z,101917.52
2017-11-18T05:25:23.286Z,101908.98
2017-11-18T05:27:24.821Z,101900.38
2017-11-18T05:29:26.374Z,101891.48
2017-11-18T05:31:29.475Z,101894.05
2017-11-18T05:33:31.530Z,101887.55
2017-11-18T05:35:32.988Z,101885.95
2017-11-18T05:37:34.372Z,101885.42
2017-11-18T05:39:35.872Z,101875.54
2017-11-18T05:41:37.408Z,101879.52
2017-11-18T05:43:39.000Z,101871.80
2017-11-18T05:45:40.922Z,101868.34
2017-11-18T05:47:42.889Z,101873.33
2017-11-18T05:49:44.980Z,101869.03
2017-11-18T05:51:47.319Z,101868.53
2017-11-18T05:53:48.886Z,101872.14
2017-11-18T05:55:50.525Z,101871.34
2017-11-18T05:57:53.013Z,101871.30
2017-11-18T05:59:55.379Z,101884.73
2017-11-18T06:01:57.092Z,101883.92
2017-11-18T06:03:58.669Z,101886.39
2017-11-18T06:06:00.223Z,101876.20
2017-11-18T06:08:01.878Z,101876.08
2017-11-18T06:10:04.001Z,101874.74
2017-11-18T06:12:05.804Z,101880.86
2017-11-18T06:14:07.661Z,101884.23
2017-11-18T06:16:09.931Z,101882.89
2017-11-18T06:18:11.674Z,101874.00
2017-11-18T06:20:14.037Z,101865.83
2017-11-18T06:22:16.001Z,101865.95
2017-11-18T06:24:17.354Z,101862.09
2017-11-18T06:26:18.676Z,101870.78
2017-11-18T06:28:20.459Z,101869.38
2017-11-18T06:30:22.305Z,101864.11
2017-11-18T06:32:24.028Z,101862.94
2017-11-18T06:34:26.027Z,101867.30
2017-11-18T06:36:27.596Z,101867.23
2017-11-18T06:38:29.266Z,101865.46
2017-11-18T06:40:31.417Z,101871.48
2017-11-18T06:42:33.049Z,101874.22
2017-11-18T06:44:34.717Z,101870.80
2017-11-18T06:46:37.379Z,101868.88
2017-11-18T06:48:39.748Z,101864.09
2017-11-18T06:50:41.166Z,101866.73
2017-11-18T06:52:42.840Z,101864.59
2017-11-18T06:54:44.299Z,101863.72
2017-11-18T06:56:45.962Z,101859.91
2017-11-18T06:58:47.503Z,101863.78
2017-11-18T07:00:49.166Z,101858.62
2017-11-18T07:02:50.934Z,101859.96
2017-11-18T07:04:52.569Z,101860.89
2017-11-18T07:06:54.118Z,101858.86
2017-11-18T07:08:55.434Z,101860.52
2017-11-18T07:10:56.895Z,101861.38
2017-11-18T07:12:59.165Z,101863.59
2017-11-18T07:15:00.779Z,101866.75
2017-11-18T07:17:02.277Z,101869.33
2017-11-18T07:19:03.836Z,101880.87
2017-11-18T07:21:06.506Z,101881.30
2017-11-18T07:23:08.752Z,101882.16
2017-11-18T07:25:10.623Z,101883.12
2017-11-18T07:27:13.429Z,101873.63
2017-11-18T07:29:14.959Z,101876.52
2017-11-18T07:31:16.614Z,101874.55
2017-11-18T07:33:18.163Z,101871.53
2017-11-18T07:35:20.853Z,101874.98
2017-11-18T07:37:22.912Z,101867.56
2017-11-18T07:39:24.661Z,101863.27
2017-11-18T07:41:26.237Z,101865.84
2017-11-18T07:43:27.973Z,101869.33
2017-11-18T07:45:29.405Z,101866.75
2017-11-18T07:47:31.166Z,101857.69
2017-11-18T07:49:33.020Z,101859.14
2017-11-18T07:51:34.576Z,101856.09
2017-11-18T07:53:35.999Z,101857.81
2017-11-18T07:55:37.358Z,101857.80
2017-11-18T07:57:39.032Z,101850.94
2017-11-18T07:59:40.574Z,101851.42
2017-11-18T08:01:41.834Z,101855.82
2017-11-18T08:03:43.369Z,101847.25
2017-11-18T08:05:44.920Z,101842.88
2017-11-18T08:07:46.479Z,101841.19
2017-11-18T08:09:50.087Z,101837.84
2017-11-18T08:11:51.723Z,101841.23
2017-11-18T08:13:53.277Z,101830.98
2017-11-18T08:15:54.696Z,101833.98
2017-11-18T08:17:57.087Z,101843.00
2017-11-18T08:19:58.651Z,101846.02
2017-11-18T08:22:00.066Z,101851.53
2017-11-18T08:24:01.740Z,101831.91
2017-11-18T08:26:03.136Z,101828.08
2017-11-18T08:28:04.419Z,101825.08
2017-11-18T08:30:06.078Z,101821.12
2017-11-18T08:32:07.581Z,101818.55
2017-11-18T08:34:08.941Z,101815.16
2017-11-18T08:36:10.535Z,101813.49
2017-11-18T08:38:12.179Z,101823.48
2017-11-18T08:40:13.644Z,101820.91
2017-11-18T08:42:15.288Z,101819.63
2017-11-18T08:44:16.841Z,101813.67
2017-11-18T08:46:18.373Z,101808.89
2017-11-18T08:48:20.150Z,101809.31
2017-11-18T08:50:21.518Z,101806.38
2017-11-18T08:52:23.226Z,101811.95
2017-11-18T08:54:24.690Z,101809.39
2017-11-18T08:56:26.078Z,101798.28
2017-11-18T08:58:27.801Z,101805.58
2017-11-18T09:00:29.347Z,101790.55
2017-11-18T09:02:30.785Z,101799.52
2017-11-18T09:04:32.435Z,101789.25
2017-11-18T09:06:33.823Z,101782.34
2017-11-18T09:08:35.739Z,101788.73
2017-11-18T09:10:37.616Z,101773.02
2017-11-18T09:12:39.558Z,101771.34
2017-11-18T09:14:40.979Z,101775.63
2017-11-18T09:16:42.749Z,101775.16
2017-11-18T09:18:44.186Z,101763.73
2017-11-18T09:20:46.079Z,101764.00
2017-11-18T09:22:47.698Z,101762.77
2017-11-18T09:24:49.275Z,101762.71
2017-11-18T09:26:50.817Z,101760.62
2017-11-18T09:28:52.482Z,101752.84
2017-11-18T09:30:54.344Z,101751.67
2017-11-18T09:32:55.779Z,101750.81
2017-11-18T09:34:57.218Z,101747.38
2017-11-18T09:36:58.980Z,101741.05
2017-11-18T09:39:00.646Z,101731.49
2017-11-18T09:41:02.024Z,101737.98
2017-11-18T09:43:03.645Z,101750.45
2017-11-18T09:45:05.183Z,101743.64
2017-11-18T09:47:06.842Z,101750.45
2017-11-18T09:49:08.367Z,101741.91
2017-11-18T09:51:09.732Z,101744.06
2017-11-18T09:53:11.595Z,101743.64
2017-11-18T09:55:13.163Z,101746.26
2017-11-18T09:57:14.682Z,101736.81
2017-11-18T09:59:17.253Z,101729.70
2017-11-18T10:01:18.741Z,101736.46
2017-11-18T10:03:20.480Z,101740.69
2017-11-18T10:05:21.909Z,101740.69
2017-11-18T10:07:23.489Z,101741.95
2017-11-18T10:09:24.923Z,101735.55
2017-11-18T10:11:26.377Z,101731.73
2017-11-18T10:13:28.262Z,101730.98
2017-11-18T10:15:29.990Z,101732.59
2017-11-18T10:17:31.659Z,101730.92
2017-11-18T10:19:33.156Z,101730.02
2017-11-18T10:21:34.729Z,101723.56
2017-11-18T10:23:36.193Z,101724.02
2017-11-18T10:25:37.947Z,101734.41
2017-11-18T10:27:39.660Z,101727.49
2017-11-18T10:29:41.341Z,101738.27
2017-11-18T10:31:43.165Z,101725.47
2017-11-18T10:33:44.755Z,101733.45
2017-11-18T10:35:47.340Z,101729.66
2017-11-18T10:37:48.807Z,101727.60
2017-11-18T10:39:51.047Z,101736.20
2017-11-18T10:41:52.887Z,101718.17
2017-11-18T10:43:54.291Z,101713.45
2017-11-18T10:45:55.655Z,101697.52
2017-11-18T10:47:57.154Z,101687.28
2017-11-18T10:49:58.888Z,101687.28
2017-11-18T10:52:00.456Z,101676.68
2017-11-18T10:54:02.003Z,101677.15
2017-11-18T10:56:03.565Z,101683.97
2017-11-18T10:58:05.009Z,101673.67
2017-11-18T11:00:06.975Z,101672.33
2017-11-18T11:02:08.513Z,101676.67
2017-11-18T11:04:10.183Z,101678.34
2017-11-18T11:06:12.830Z,101671.88
2017-11-18T11:08:14.514Z,101674.53
2017-11-18T11:10:16.152Z,101666.30
2017-11-18T11:12:17.598Z,101672.75
2017-11-18T11:14:20.081Z,101668.95
2017-11-18T11:16:21.619Z,101666.38
2017-11-18T11:18:23.173Z,101665.52
2017-11-18T11:20:24.800Z,101653.57
2017-11-18T11:22:26.564Z,101649.70
2017-11-18T11:24:28.119Z,101650.98
2017-11-18T11:26:29.888Z,101641.13
2017-11-18T11:28:31.546Z,101657.80
2017-11-18T11:30:33.167Z,101632.96
2017-11-18T11:32:34.472Z,101631.27
2017-11-18T11:34:36.208Z,101624.45
2017-11-18T11:36:37.705Z,101615.80
2017-11-18T11:38:39.079Z,101609.80
2017-11-18T11:40:40.732Z,101609.86
2017-11-18T11:42:42.285Z,101590.97
2017-11-18T11:44:43.940Z,101583.25
2017-11-18T11:46:45.693Z,101577.98
2017-11-18T11:48:47.906Z,101580.61
2017-11-18T11:50:49.567Z,101590.85
2017-11-18T11:52:51.233Z,101582.20
2017-11-18T11:54:52.737Z,101577.12
2017-11-18T11:56:54.336Z,101571.62
2017-11-18T11:58:57.417Z,101568.97
2017-11-18T12:00:58.877Z,101575.71
2017-11-18T12:03:00.575Z,101583.19
2017-11-18T12:05:02.095Z,101572.84
2017-11-18T12:07:03.751Z,101565.23
2017-11-18T12:09:05.319Z,101568.13
2017-11-18T12:11:06.590Z,101579.15
2017-11-18T12:13:08.202Z,101563.28
2017-11-18T12:15:09.999Z,101562.16
2017-11-18T12:17:11.734Z,101558.59
2017-11-18T12:19:13.272Z,101542.26
2017-11-18T12:21:15.544Z,101554.73
2017-11-18T12:23:17.071Z,101550.91
2017-11-18T12:25:18.736Z,101566.34
2017-11-18T12:27:21.310Z,101561.73
2017-11-18T12:29:22.760Z,101567.45
2017-11-18T12:31:24.424Z,101555.48
2017-11-18T12:33:25.969Z,101559.36
2017-11-18T12:35:27.805Z,101545.30
2017-11-18T12:37:29.274Z,101545.67
2017-11-18T12:39:30.928Z,101543.03
2017-11-18T12:41:32.793Z,101531.08
2017-11-18T12:43:34.669Z,101534.77
2017-11-18T12:45:36.298Z,101524.53
2017-11-18T12:47:37.757Z,101515.95
2017-11-18T12:49:39.281Z,101516.79
2017-11-18T12:51:40.846Z,101505.66
2017-11-18T12:53:42.493Z,101507.28
2017-11-18T12:55:44.067Z,101505.94
2017-11-18T12:57:45.585Z,101510.23
2017-11-18T12:59:47.348Z,101501.84
2017-11-18T13:01:48.992Z,101496.14
2017-11-18T13:03:50.556Z,101499.08
2017-11-18T13:05:52.212Z,101491.47
2017-11-18T13:12:24.182Z,101349.19
2017-11-18T13:14:25.834Z,101351.25
2017-11-18T13:16:27.957Z,101371.15
2017-11-18T13:18:29.620Z,101353.17
2017-11-18T13:25:35.847Z,101364.56
2017-11-18T13:27:39.015Z,101376.41
2017-11-18T13:31:41.657Z,101362.98
2017-11-18T13:33:44.724Z,101353.00
2017-11-18T13:40:47.724Z,101360.53
2017-11-18T13:47:53.721Z,101350.69
2017-11-18T13:49:56.988Z,101344.72
2017-11-18T13:55:20.428Z,101337.64
2017-11-18T13:57:24.272Z,101326.62
2017-11-18T13:59:27.692Z,101331.49
2017-11-18T14:01:31.573Z,101335.02
2017-11-18T14:08:01.784Z,101301.09
2017-11-18T14:10:37.917Z,101313.02
2017-11-18T14:12:45.321Z,101308.36
2017-11-18T14:14:47.060Z,101311.63
2017-11-18T14:16:48.754Z,101311.91
2017-11-18T14:18:50.091Z,101316.69
2017-11-18T14:20:52.622Z,101309.89
2017-11-18T14:22:54.036Z,101315.80
2017-11-18T14:24:55.887Z,101308.83
2017-11-18T14:26:57.622Z,101319.22
2017-11-18T14:28:59.040Z,101307.23
2017-11-18T14:31:00.722Z,101307.46
2017-11-18T14:33:02.083Z,101319.39
2017-11-18T14:35:03.922Z,101310.83
2017-11-18T14:37:05.612Z,101333.41
2017-11-18T14:39:07.047Z,101311.92
2017-11-18T14:41:08.631Z,101327.83
2017-11-18T14:43:10.042Z,101303.66
2017-11-18T14:45:11.981Z,101315.41
